sensor_id;sensor_type;location;lat;lon;timestamp;temperature;humidity
27506;DHT22;14939;43.596;1.320;2023-07-31T00:00:07;19.00;92.40
27506;DHT22;14939;43.596;1.320;2023-07-31T00:02:34;19.00;92.00
27506;DHT22;14939;43.596;1.320;2023-07-31T00:05:00;19.00;92.20
27506;DHT22;14939;43.596;1.320;2023-07-31T00:07:25;19.00;91.50
27506;DHT22;14939;43.596;1.320;2023-07-31T00:09:51;18.90;91.50
27506;DHT22;14939;43.596;1.320;2023-07-31T00:12:16;18.90;91.40
27506;DHT22;14939;43.596;1.320;2023-07-31T00:14:42;18.90;91.60
27506;DHT22;14939;43.596;1.320;2023-07-31T00:17:07;18.80;91.50
27506;DHT22;14939;43.596;1.320;2023-07-31T00:19:33;18.80;91.60
27506;DHT22;14939;43.596;1.320;2023-07-31T00:21:58;18.70;91.70
27506;DHT22;14939;43.596;1.320;2023-07-31T00:24:24;18.70;91.70
27506;DHT22;14939;43.596;1.320;2023-07-31T00:26:49;18.70;91.90
27506;DHT22;14939;43.596;1.320;2023-07-31T00:29:15;18.70;92.10
27506;DHT22;14939;43.596;1.320;2023-07-31T00:31:40;18.60;92.40
27506;DHT22;14939;43.596;1.320;2023-07-31T00:34:06;18.60;92.50
27506;DHT22;14939;43.596;1.320;2023-07-31T00:36:31;18.50;92.80
27506;DHT22;14939;43.596;1.320;2023-07-31T00:38:57;18.40;93.10
27506;DHT22;14939;43.596;1.320;2023-07-31T00:41:23;18.40;93.50
27506;DHT22;14939;43.596;1.320;2023-07-31T00:43:48;18.40;93.80
27506;DHT22;14939;43.596;1.320;2023-07-31T00:46:14;18.30;94.10
27506;DHT22;14939;43.596;1.320;2023-07-31T00:48:39;18.30;94.50
27506;DHT22;14939;43.596;1.320;2023-07-31T00:51:06;18.20;95.00
27506;DHT22;14939;43.596;1.320;2023-07-31T00:53:32;18.20;95.50
27506;DHT22;14939;43.596;1.320;2023-07-31T00:55:57;18.20;95.80
27506;DHT22;14939;43.596;1.320;2023-07-31T00:58:23;18.20;96.10
27506;DHT22;14939;43.596;1.320;2023-07-31T01:00:49;18.20;96.60
27506;DHT22;14939;43.596;1.320;2023-07-31T01:03:15;18.10;96.90
27506;DHT22;14939;43.596;1.320;2023-07-31T01:08:15;18.00;98.30
27506;DHT22;14939;43.596;1.320;2023-07-31T01:11:30;18.00;98.30
27506;DHT22;14939;43.596;1.320;2023-07-31T01:13:30;17.90;98.80
27506;DHT22;14939;43.596;1.320;2023-07-31T01:15:55;17.90;99.50
27506;DHT22;14939;43.596;1.320;2023-07-31T01:18:21;17.80;99.90
27506;DHT22;14939;43.596;1.320;2023-07-31T01:20:47;17.70;99.90
27506;DHT22;14939;43.596;1.320;2023-07-31T01:28:55;17.80;99.90
27506;DHT22;14939;43.596;1.320;2023-07-31T01:31:25;17.80;99.90
27506;DHT22;14939;43.596;1.320;2023-07-31T01:33:54;17.70;99.90
27506;DHT22;14939;43.596;1.320;2023-07-31T01:36:21;17.70;99.90
27506;DHT22;14939;43.596;1.320;2023-07-31T01:38:47;17.70;99.90
27506;DHT22;14939;43.596;1.320;2023-07-31T01:41:12;17.70;99.90
27506;DHT22;14939;43.596;1.320;2023-07-31T01:43:39;17.70;99.90
27506;DHT22;14939;43.596;1.320;2023-07-31T01:46:04;17.70;99.90
27506;DHT22;14939;43.596;1.320;2023-07-31T01:48:30;17.70;99.90
27506;DHT22;14939;43.596;1.320;2023-07-31T01:51:00;17.70;99.90
27506;DHT22;14939;43.596;1.320;2023-07-31T01:53:26;17.70;99.90
27506;DHT22;14939;43.596;1.320;2023-07-31T01:55:52;17.70;99.90
27506;DHT22;14939;43.596;1.320;2023-07-31T01:58:17;17.60;99.90
27506;DHT22;14939;43.596;1.320;2023-07-31T02:00:43;17.60;99.90
27506;DHT22;14939;43.596;1.320;2023-07-31T02:03:08;17.60;99.90
27506;DHT22;14939;43.596;1.320;2023-07-31T02:05:34;17.50;99.90
27506;DHT22;14939;43.596;1.320;2023-07-31T02:07:59;17.50;99.90
27506;DHT22;14939;43.596;1.320;2023-07-31T02:10:25;17.50;99.90
27506;DHT22;14939;43.596;1.320;2023-07-31T02:12:50;17.50;99.90
27506;DHT22;14939;43.596;1.320;2023-07-31T02:15:16;17.40;99.90
27506;DHT22;14939;43.596;1.320;2023-07-31T02:17:41;17.40;99.90
27506;DHT22;14939;43.596;1.320;2023-07-31T02:20:07;17.40;99.90
27506;DHT22;14939;43.596;1.320;2023-07-31T02:22:33;17.30;99.90
27506;DHT22;14939;43.596;1.320;2023-07-31T02:24:58;17.30;99.90
27506;DHT22;14939;43.596;1.320;2023-07-31T02:27:24;17.30;99.90
27506;DHT22;14939;43.596;1.320;2023-07-31T02:29:52;17.30;99.90
27506;DHT22;14939;43.596;1.320;2023-07-31T02:32:18;17.30;99.90
27506;DHT22;14939;43.596;1.320;2023-07-31T02:34:43;17.30;99.90
27506;DHT22;14939;43.596;1.320;2023-07-31T02:37:09;17.20;99.90
27506;DHT22;14939;43.596;1.320;2023-07-31T02:39:34;17.20;99.90
27506;DHT22;14939;43.596;1.320;2023-07-31T02:42:00;17.20;99.90
27506;DHT22;14939;43.596;1.320;2023-07-31T02:44:25;17.10;99.90
27506;DHT22;14939;43.596;1.320;2023-07-31T02:46:51;17.10;99.90
27506;DHT22;14939;43.596;1.320;2023-07-31T02:49:17;17.10;99.90
27506;DHT22;14939;43.596;1.320;2023-07-31T02:51:42;17.10;99.90
27506;DHT22;14939;43.596;1.320;2023-07-31T02:54:08;17.10;99.90
27506;DHT22;14939;43.596;1.320;2023-07-31T02:56:33;17.10;99.90
27506;DHT22;14939;43.596;1.320;2023-07-31T02:58:59;17.00;99.90
27506;DHT22;14939;43.596;1.320;2023-07-31T03:01:24;17.00;99.90
27506;DHT22;14939;43.596;1.320;2023-07-31T03:03:50;17.00;99.90
27506;DHT22;14939;43.596;1.320;2023-07-31T03:06:15;16.90;99.90
27506;DHT22;14939;43.596;1.320;2023-07-31T03:08:41;16.90;99.90
27506;DHT22;14939;43.596;1.320;2023-07-31T03:11:06;16.90;99.90
27506;DHT22;14939;43.596;1.320;2023-07-31T03:13:32;16.90;99.90
27506;DHT22;14939;43.596;1.320;2023-07-31T03:15:57;16.80;99.90
27506;DHT22;14939;43.596;1.320;2023-07-31T03:18:23;16.80;99.90
27506;DHT22;14939;43.596;1.320;2023-07-31T03:20:48;16.80;99.90
27506;DHT22;14939;43.596;1.320;2023-07-31T03:23:14;16.80;99.90
27506;DHT22;14939;43.596;1.320;2023-07-31T03:25:41;16.70;99.90
27506;DHT22;14939;43.596;1.320;2023-07-31T03:28:07;16.70;99.90
27506;DHT22;14939;43.596;1.320;2023-07-31T03:30:32;16.70;99.90
27506;DHT22;14939;43.596;1.320;2023-07-31T03:33:00;16.60;99.90
27506;DHT22;14939;43.596;1.320;2023-07-31T03:35:25;16.60;99.90
27506;DHT22;14939;43.596;1.320;2023-07-31T03:37:51;16.60;99.90
27506;DHT22;14939;43.596;1.320;2023-07-31T03:40:16;16.50;99.90
27506;DHT22;14939;43.596;1.320;2023-07-31T03:42:42;16.50;99.90
27506;DHT22;14939;43.596;1.320;2023-07-31T03:45:08;16.40;99.90
27506;DHT22;14939;43.596;1.320;2023-07-31T03:47:33;16.40;99.90
27506;DHT22;14939;43.596;1.320;2023-07-31T03:49:59;16.30;99.90
27506;DHT22;14939;43.596;1.320;2023-07-31T03:52:25;16.20;99.90
27506;DHT22;14939;43.596;1.320;2023-07-31T03:54:50;16.10;99.90
27506;DHT22;14939;43.596;1.320;2023-07-31T03:57:16;16.10;99.90
27506;DHT22;14939;43.596;1.320;2023-07-31T03:59:41;16.10;99.90
27506;DHT22;14939;43.596;1.320;2023-07-31T04:02:07;16.20;99.90
27506;DHT22;14939;43.596;1.320;2023-07-31T04:04:32;16.20;99.90
27506;DHT22;14939;43.596;1.320;2023-07-31T04:06:58;16.30;99.90
27506;DHT22;14939;43.596;1.320;2023-07-31T04:09:24;16.30;99.90
27506;DHT22;14939;43.596;1.320;2023-07-31T04:11:49;16.30;99.90
27506;DHT22;14939;43.596;1.320;2023-07-31T04:14:15;16.20;99.90
27506;DHT22;14939;43.596;1.320;2023-07-31T04:16:40;16.20;99.90
27506;DHT22;14939;43.596;1.320;2023-07-31T04:19:06;16.20;99.90
27506;DHT22;14939;43.596;1.320;2023-07-31T04:21:31;16.20;99.90
27506;DHT22;14939;43.596;1.320;2023-07-31T04:23:57;16.20;99.90
27506;DHT22;14939;43.596;1.320;2023-07-31T04:26:23;16.10;99.90
27506;DHT22;14939;43.596;1.320;2023-07-31T04:28:49;16.10;99.90
27506;DHT22;14939;43.596;1.320;2023-07-31T04:31:14;16.10;99.90
27506;DHT22;14939;43.596;1.320;2023-07-31T04:33:40;16.10;99.90
27506;DHT22;14939;43.596;1.320;2023-07-31T04:36:06;16.10;99.90
27506;DHT22;14939;43.596;1.320;2023-07-31T04:38:31;16.00;99.90
27506;DHT22;14939;43.596;1.320;2023-07-31T04:40:57;16.00;99.90
27506;DHT22;14939;43.596;1.320;2023-07-31T04:43:22;16.00;99.90
27506;DHT22;14939;43.596;1.320;2023-07-31T04:45:48;16.00;99.90
27506;DHT22;14939;43.596;1.320;2023-07-31T04:48:14;16.00;99.90
27506;DHT22;14939;43.596;1.320;2023-07-31T04:50:39;16.00;99.90
27506;DHT22;14939;43.596;1.320;2023-07-31T04:53:05;16.00;99.90
27506;DHT22;14939;43.596;1.320;2023-07-31T04:55:31;15.90;99.90
27506;DHT22;14939;43.596;1.320;2023-07-31T04:57:57;15.90;99.90
27506;DHT22;14939;43.596;1.320;2023-07-31T05:00:23;15.90;99.90
27506;DHT22;14939;43.596;1.320;2023-07-31T05:02:48;15.90;99.90
27506;DHT22;14939;43.596;1.320;2023-07-31T05:05:14;15.90;99.90
27506;DHT22;14939;43.596;1.320;2023-07-31T05:07:40;15.90;99.90
27506;DHT22;14939;43.596;1.320;2023-07-31T05:10:05;15.90;99.90
27506;DHT22;14939;43.596;1.320;2023-07-31T05:12:31;15.90;99.90
27506;DHT22;14939;43.596;1.320;2023-07-31T05:14:56;15.90;99.90
27506;DHT22;14939;43.596;1.320;2023-07-31T05:17:22;15.90;99.90
27506;DHT22;14939;43.596;1.320;2023-07-31T05:19:48;16.00;99.90
27506;DHT22;14939;43.596;1.320;2023-07-31T05:22:13;16.00;99.90
27506;DHT22;14939;43.596;1.320;2023-07-31T05:24:39;16.00;99.90
27506;DHT22;14939;43.596;1.320;2023-07-31T05:27:04;16.00;99.90
27506;DHT22;14939;43.596;1.320;2023-07-31T05:29:30;16.00;99.90
27506;DHT22;14939;43.596;1.320;2023-07-31T05:31:56;16.10;99.90
27506;DHT22;14939;43.596;1.320;2023-07-31T05:34:21;16.10;99.90
27506;DHT22;14939;43.596;1.320;2023-07-31T05:36:47;16.20;99.90
27506;DHT22;14939;43.596;1.320;2023-07-31T05:39:12;16.30;99.90
27506;DHT22;14939;43.596;1.320;2023-07-31T05:41:38;16.30;99.90
27506;DHT22;14939;43.596;1.320;2023-07-31T05:44:03;16.40;99.90
27506;DHT22;14939;43.596;1.320;2023-07-31T05:46:29;16.40;99.90
27506;DHT22;14939;43.596;1.320;2023-07-31T05:48:56;16.50;99.90
27506;DHT22;14939;43.596;1.320;2023-07-31T05:51:21;16.50;99.90
27506;DHT22;14939;43.596;1.320;2023-07-31T05:53:47;16.60;99.90
27506;DHT22;14939;43.596;1.320;2023-07-31T05:56:13;16.60;99.90
27506;DHT22;14939;43.596;1.320;2023-07-31T05:58:38;16.70;99.90
27506;DHT22;14939;43.596;1.320;2023-07-31T06:01:04;16.80;99.90
27506;DHT22;14939;43.596;1.320;2023-07-31T06:03:29;16.80;99.90
27506;DHT22;14939;43.596;1.320;2023-07-31T06:05:55;16.90;99.90
27506;DHT22;14939;43.596;1.320;2023-07-31T06:08:21;17.00;99.90
27506;DHT22;14939;43.596;1.320;2023-07-31T06:10:46;17.00;99.90
27506;DHT22;14939;43.596;1.320;2023-07-31T06:13:12;17.10;99.90
27506;DHT22;14939;43.596;1.320;2023-07-31T06:15:38;17.20;99.90
27506;DHT22;14939;43.596;1.320;2023-07-31T06:18:03;17.20;99.90
27506;DHT22;14939;43.596;1.320;2023-07-31T06:20:30;17.20;99.70
27506;DHT22;14939;43.596;1.320;2023-07-31T06:22:55;17.30;99.90
27506;DHT22;14939;43.596;1.320;2023-07-31T06:25:21;17.30;99.90
27506;DHT22;14939;43.596;1.320;2023-07-31T06:27:46;17.40;99.00
27506;DHT22;14939;43.596;1.320;2023-07-31T06:30:12;17.50;99.20
27506;DHT22;14939;43.596;1.320;2023-07-31T06:32:37;17.50;97.30
27506;DHT22;14939;43.596;1.320;2023-07-31T06:35:03;17.50;97.70
27506;DHT22;14939;43.596;1.320;2023-07-31T06:37:28;17.50;97.20
27506;DHT22;14939;43.596;1.320;2023-07-31T06:39:54;17.60;96.70
27506;DHT22;14939;43.596;1.320;2023-07-31T06:42:19;17.70;96.70
27506;DHT22;14939;43.596;1.320;2023-07-31T06:44:45;17.80;96.60
27506;DHT22;14939;43.596;1.320;2023-07-31T06:47:10;17.90;95.90
27506;DHT22;14939;43.596;1.320;2023-07-31T06:49:36;18.00;95.10
27506;DHT22;14939;43.596;1.320;2023-07-31T06:52:02;18.00;94.40
27506;DHT22;14939;43.596;1.320;2023-07-31T06:54:27;18.10;94.90
27506;DHT22;14939;43.596;1.320;2023-07-31T06:56:53;18.10;93.90
27506;DHT22;14939;43.596;1.320;2023-07-31T06:59:18;18.10;93.50
27506;DHT22;14939;43.596;1.320;2023-07-31T07:01:44;18.20;93.70
27506;DHT22;14939;43.596;1.320;2023-07-31T07:04:09;18.30;92.90
27506;DHT22;14939;43.596;1.320;2023-07-31T07:06:35;18.30;92.50
27506;DHT22;14939;43.596;1.320;2023-07-31T07:09:00;18.30;91.30
27506;DHT22;14939;43.596;1.320;2023-07-31T07:11:26;18.40;91.50
27506;DHT22;14939;43.596;1.320;2023-07-31T07:13:51;18.40;90.80
27506;DHT22;14939;43.596;1.320;2023-07-31T07:16:17;18.60;89.40
27506;DHT22;14939;43.596;1.320;2023-07-31T07:18:42;18.60;88.30
27506;DHT22;14939;43.596;1.320;2023-07-31T07:21:08;18.60;86.70
27506;DHT22;14939;43.596;1.320;2023-07-31T07:23:34;18.70;87.10
27506;DHT22;14939;43.596;1.320;2023-07-31T07:25:59;18.80;85.90
27506;DHT22;14939;43.596;1.320;2023-07-31T07:28:25;18.80;85.50
27506;DHT22;14939;43.596;1.320;2023-07-31T07:30:51;19.00;86.10
27506;DHT22;14939;43.596;1.320;2023-07-31T07:33:16;19.00;83.90
27506;DHT22;14939;43.596;1.320;2023-07-31T07:35:42;19.00;82.30
27506;DHT22;14939;43.596;1.320;2023-07-31T07:38:07;19.00;81.90
27506;DHT22;14939;43.596;1.320;2023-07-31T07:40:37;19.10;80.70
27506;DHT22;14939;43.596;1.320;2023-07-31T07:43:03;19.20;80.40
27506;DHT22;14939;43.596;1.320;2023-07-31T07:45:28;19.40;80.10
27506;DHT22;14939;43.596;1.320;2023-07-31T07:47:54;19.40;79.30
27506;DHT22;14939;43.596;1.320;2023-07-31T07:50:19;19.40;79.70
27506;DHT22;14939;43.596;1.320;2023-07-31T07:52:45;19.60;79.10
27506;DHT22;14939;43.596;1.320;2023-07-31T07:55:11;19.60;77.10
27506;DHT22;14939;43.596;1.320;2023-07-31T07:57:36;19.50;75.80
27506;DHT22;14939;43.596;1.320;2023-07-31T08:00:02;19.60;77.10
27506;DHT22;14939;43.596;1.320;2023-07-31T08:02:28;19.80;77.20
27506;DHT22;14939;43.596;1.320;2023-07-31T08:04:53;19.80;75.50
27506;DHT22;14939;43.596;1.320;2023-07-31T08:07:19;19.70;74.40
27506;DHT22;14939;43.596;1.320;2023-07-31T08:09:44;19.80;75.30
27506;DHT22;14939;43.596;1.320;2023-07-31T08:12:10;19.80;74.60
27506;DHT22;14939;43.596;1.320;2023-07-31T08:14:35;20.00;73.90
27506;DHT22;14939;43.596;1.320;2023-07-31T08:17:01;20.00;72.20
27506;DHT22;14939;43.596;1.320;2023-07-31T08:19:27;20.00;72.00
27506;DHT22;14939;43.596;1.320;2023-07-31T08:21:52;20.20;70.60
27506;DHT22;14939;43.596;1.320;2023-07-31T08:24:18;20.20;69.80
27506;DHT22;14939;43.596;1.320;2023-07-31T08:26:43;20.30;68.40
27506;DHT22;14939;43.596;1.320;2023-07-31T08:29:09;20.40;68.80
27506;DHT22;14939;43.596;1.320;2023-07-31T08:31:34;20.40;67.00
27506;DHT22;14939;43.596;1.320;2023-07-31T08:34:00;20.40;68.90
27506;DHT22;14939;43.596;1.320;2023-07-31T08:36:26;20.50;68.30
27506;DHT22;14939;43.596;1.320;2023-07-31T08:38:51;20.60;66.00
27506;DHT22;14939;43.596;1.320;2023-07-31T08:41:17;20.70;68.00
27506;DHT22;14939;43.596;1.320;2023-07-31T08:43:44;20.70;66.10
27506;DHT22;14939;43.596;1.320;2023-07-31T08:46:10;20.90;65.80
27506;DHT22;14939;43.596;1.320;2023-07-31T08:48:37;20.90;65.20
27506;DHT22;14939;43.596;1.320;2023-07-31T08:51:03;21.00;64.40
27506;DHT22;14939;43.596;1.320;2023-07-31T08:53:29;21.00;64.60
27506;DHT22;14939;43.596;1.320;2023-07-31T08:55:54;21.20;62.30
27506;DHT22;14939;43.596;1.320;2023-07-31T08:58:21;21.10;62.50
27506;DHT22;14939;43.596;1.320;2023-07-31T09:00:48;21.10;64.00
27506;DHT22;14939;43.596;1.320;2023-07-31T09:03:14;21.30;62.10
27506;DHT22;14939;43.596;1.320;2023-07-31T09:05:44;21.30;62.00
27506;DHT22;14939;43.596;1.320;2023-07-31T09:08:10;21.50;62.00
27506;DHT22;14939;43.596;1.320;2023-07-31T09:10:40;21.40;61.90
27506;DHT22;14939;43.596;1.320;2023-07-31T09:13:06;21.40;62.20
27506;DHT22;14939;43.596;1.320;2023-07-31T09:15:31;21.40;62.50
27506;DHT22;14939;43.596;1.320;2023-07-31T09:18:00;21.50;62.30
27506;DHT22;14939;43.596;1.320;2023-07-31T09:20:28;21.50;61.30
27506;DHT22;14939;43.596;1.320;2023-07-31T09:22:54;21.60;60.80
27506;DHT22;14939;43.596;1.320;2023-07-31T09:25:21;21.50;61.20
27506;DHT22;14939;43.596;1.320;2023-07-31T09:27:50;21.60;61.30
27506;DHT22;14939;43.596;1.320;2023-07-31T09:30:17;21.70;61.60
27506;DHT22;14939;43.596;1.320;2023-07-31T09:32:43;21.70;60.80
27506;DHT22;14939;43.596;1.320;2023-07-31T09:35:28;21.70;60.40
27506;DHT22;14939;43.596;1.320;2023-07-31T09:37:58;21.70;60.30
27506;DHT22;14939;43.596;1.320;2023-07-31T09:40:27;21.80;60.50
27506;DHT22;14939;43.596;1.320;2023-07-31T09:43:12;22.00;59.90
27506;DHT22;14939;43.596;1.320;2023-07-31T09:45:39;22.00;60.20
27506;DHT22;14939;43.596;1.320;2023-07-31T09:48:09;22.00;61.20
27506;DHT22;14939;43.596;1.320;2023-07-31T09:50:36;22.00;59.50
27506;DHT22;14939;43.596;1.320;2023-07-31T09:53:02;22.10;59.70
27506;DHT22;14939;43.596;1.320;2023-07-31T09:55:27;22.20;59.10
27506;DHT22;14939;43.596;1.320;2023-07-31T09:57:54;22.40;59.10
27506;DHT22;14939;43.596;1.320;2023-07-31T10:00:21;22.30;57.90
27506;DHT22;14939;43.596;1.320;2023-07-31T10:02:50;22.20;58.80
27506;DHT22;14939;43.596;1.320;2023-07-31T10:05:16;22.30;59.10
27506;DHT22;14939;43.596;1.320;2023-07-31T10:07:43;22.40;57.60
27506;DHT22;14939;43.596;1.320;2023-07-31T10:10:10;22.40;57.20
27506;DHT22;14939;43.596;1.320;2023-07-31T10:12:36;22.50;57.20
27506;DHT22;14939;43.596;1.320;2023-07-31T10:15:03;22.50;56.90
27506;DHT22;14939;43.596;1.320;2023-07-31T10:17:29;22.60;56.50
27506;DHT22;14939;43.596;1.320;2023-07-31T10:19:55;22.90;56.90
27506;DHT22;14939;43.596;1.320;2023-07-31T10:22:21;22.80;56.40
27506;DHT22;14939;43.596;1.320;2023-07-31T10:24:47;22.70;56.40
27506;DHT22;14939;43.596;1.320;2023-07-31T10:27:13;22.80;56.10
27506;DHT22;14939;43.596;1.320;2023-07-31T10:29:39;23.10;55.50
27506;DHT22;14939;43.596;1.320;2023-07-31T10:32:06;23.10;55.10
27506;DHT22;14939;43.596;1.320;2023-07-31T10:34:35;23.30;54.40
27506;DHT22;14939;43.596;1.320;2023-07-31T10:40:05;23.40;53.90
27506;DHT22;14939;43.596;1.320;2023-07-31T10:42:35;23.30;54.10
27506;DHT22;14939;43.596;1.320;2023-07-31T10:45:04;23.40;53.40
27506;DHT22;14939;43.596;1.320;2023-07-31T10:47:31;23.60;53.40
27506;DHT22;14939;43.596;1.320;2023-07-31T10:50:10;23.60;53.00
27506;DHT22;14939;43.596;1.320;2023-07-31T10:52:36;23.80;52.20
27506;DHT22;14939;43.596;1.320;2023-07-31T10:58:07;23.80;51.90
27506;DHT22;14939;43.596;1.320;2023-07-31T11:00:33;24.00;50.20
27506;DHT22;14939;43.596;1.320;2023-07-31T11:03:00;23.80;49.90
27506;DHT22;14939;43.596;1.320;2023-07-31T11:05:59;23.80;50.60
27506;DHT22;14939;43.596;1.320;2023-07-31T11:08:22;23.90;50.90
27506;DHT22;14939;43.596;1.320;2023-07-31T11:10:49;23.90;50.60
27506;DHT22;14939;43.596;1.320;2023-07-31T11:13:14;24.20;50.00
27506;DHT22;14939;43.596;1.320;2023-07-31T11:15:40;24.20;49.40
27506;DHT22;14939;43.596;1.320;2023-07-31T11:18:06;24.10;48.10
27506;DHT22;14939;43.596;1.320;2023-07-31T11:20:34;24.00;47.70
27506;DHT22;14939;43.596;1.320;2023-07-31T11:23:01;23.90;47.40
27506;DHT22;14939;43.596;1.320;2023-07-31T11:25:28;23.90;47.30
27506;DHT22;14939;43.596;1.320;2023-07-31T11:27:54;24.10;46.60
27506;DHT22;14939;43.596;1.320;2023-07-31T11:30:21;24.20;46.30
27506;DHT22;14939;43.596;1.320;2023-07-31T11:32:47;24.30;46.00
27506;DHT22;14939;43.596;1.320;2023-07-31T11:35:12;24.20;45.30
27506;DHT22;14939;43.596;1.320;2023-07-31T11:37:39;24.30;46.40
27506;DHT22;14939;43.596;1.320;2023-07-31T11:40:05;24.50;44.20
27506;DHT22;14939;43.596;1.320;2023-07-31T11:42:30;24.80;43.60
27506;DHT22;14939;43.596;1.320;2023-07-31T11:44:56;24.80;42.90
27506;DHT22;14939;43.596;1.320;2023-07-31T11:47:21;24.70;43.20
27506;DHT22;14939;43.596;1.320;2023-07-31T11:49:47;24.90;41.10
27506;DHT22;14939;43.596;1.320;2023-07-31T11:52:14;24.80;41.90
27506;DHT22;14939;43.596;1.320;2023-07-31T11:54:40;25.00;41.40
27506;DHT22;14939;43.596;1.320;2023-07-31T11:57:06;25.00;41.60
27506;DHT22;14939;43.596;1.320;2023-07-31T11:59:32;24.90;40.70
27506;DHT22;14939;43.596;1.320;2023-07-31T12:01:57;24.70;40.30
27506;DHT22;14939;43.596;1.320;2023-07-31T12:04:23;24.70;40.70
27506;DHT22;14939;43.596;1.320;2023-07-31T12:06:49;24.80;41.00
27506;DHT22;14939;43.596;1.320;2023-07-31T12:09:17;24.90;40.90
27506;DHT22;14939;43.596;1.320;2023-07-31T12:11:44;25.00;40.50
27506;DHT22;14939;43.596;1.320;2023-07-31T12:14:26;25.30;38.90
27506;DHT22;14939;43.596;1.320;2023-07-31T12:16:55;25.30;38.00
27506;DHT22;14939;43.596;1.320;2023-07-31T12:19:21;25.40;38.80
27506;DHT22;14939;43.596;1.320;2023-07-31T12:21:47;25.30;38.00
27506;DHT22;14939;43.596;1.320;2023-07-31T12:24:12;25.30;39.00
27506;DHT22;14939;43.596;1.320;2023-07-31T12:26:38;25.50;38.10
27506;DHT22;14939;43.596;1.320;2023-07-31T12:29:05;25.60;36.30
27506;DHT22;14939;43.596;1.320;2023-07-31T12:31:32;25.50;36.50
27506;DHT22;14939;43.596;1.320;2023-07-31T12:33:58;25.40;36.00
27506;DHT22;14939;43.596;1.320;2023-07-31T12:36:24;25.70;34.80
27506;DHT22;14939;43.596;1.320;2023-07-31T12:38:50;25.90;32.50
27506;DHT22;14939;43.596;1.320;2023-07-31T12:41:15;25.90;32.80
27506;DHT22;14939;43.596;1.320;2023-07-31T12:43:41;25.80;33.80
27506;DHT22;14939;43.596;1.320;2023-07-31T12:46:07;25.90;33.70
27506;DHT22;14939;43.596;1.320;2023-07-31T12:48:33;26.10;33.20
27506;DHT22;14939;43.596;1.320;2023-07-31T12:50:59;26.10;33.10
27506;DHT22;14939;43.596;1.320;2023-07-31T12:53:24;26.30;32.80
27506;DHT22;14939;43.596;1.320;2023-07-31T12:55:50;26.00;32.60
27506;DHT22;14939;43.596;1.320;2023-07-31T12:58:15;25.90;32.90
27506;DHT22;14939;43.596;1.320;2023-07-31T13:00:41;25.80;33.10
27506;DHT22;14939;43.596;1.320;2023-07-31T13:03:06;26.00;33.60
27506;DHT22;14939;43.596;1.320;2023-07-31T13:05:32;26.10;31.70
27506;DHT22;14939;43.596;1.320;2023-07-31T13:07:57;26.10;31.10
27506;DHT22;14939;43.596;1.320;2023-07-31T13:10:23;26.10;30.90
27506;DHT22;14939;43.596;1.320;2023-07-31T13:12:49;26.20;30.80
27506;DHT22;14939;43.596;1.320;2023-07-31T13:15:15;26.20;31.10
27506;DHT22;14939;43.596;1.320;2023-07-31T13:17:40;26.20;31.30
27506;DHT22;14939;43.596;1.320;2023-07-31T13:20:06;26.20;31.30
27506;DHT22;14939;43.596;1.320;2023-07-31T13:22:32;26.30;32.00
27506;DHT22;14939;43.596;1.320;2023-07-31T13:24:58;26.30;31.30
27506;DHT22;14939;43.596;1.320;2023-07-31T13:27:23;26.50;30.10
27506;DHT22;14939;43.596;1.320;2023-07-31T13:29:49;26.60;29.50
27506;DHT22;14939;43.596;1.320;2023-07-31T13:32:15;26.60;29.30
27506;DHT22;14939;43.596;1.320;2023-07-31T13:34:41;26.40;29.40
27506;DHT22;14939;43.596;1.320;2023-07-31T13:37:07;26.40;29.80
27506;DHT22;14939;43.596;1.320;2023-07-31T13:39:32;26.50;28.90
27506;DHT22;14939;43.596;1.320;2023-07-31T13:42:04;26.60;28.60
27506;DHT22;14939;43.596;1.320;2023-07-31T13:44:33;26.40;29.40
27506;DHT22;14939;43.596;1.320;2023-07-31T13:46:59;26.50;29.90
27506;DHT22;14939;43.596;1.320;2023-07-31T13:49:25;26.70;29.10
27506;DHT22;14939;43.596;1.320;2023-07-31T13:51:50;26.70;29.40
27506;DHT22;14939;43.596;1.320;2023-07-31T13:54:16;26.60;29.30
27506;DHT22;14939;43.596;1.320;2023-07-31T13:56:42;26.70;28.10
27506;DHT22;14939;43.596;1.320;2023-07-31T13:59:08;26.80;29.10
27506;DHT22;14939;43.596;1.320;2023-07-31T14:01:33;26.70;29.40
27506;DHT22;14939;43.596;1.320;2023-07-31T14:03:59;26.60;29.00
27506;DHT22;14939;43.596;1.320;2023-07-31T14:06:25;26.90;29.80
27506;DHT22;14939;43.596;1.320;2023-07-31T14:08:50;27.20;28.30
27506;DHT22;14939;43.596;1.320;2023-07-31T14:11:16;27.40;26.80
27506;DHT22;14939;43.596;1.320;2023-07-31T14:13:41;27.10;25.00
27506;DHT22;14939;43.596;1.320;2023-07-31T14:16:07;27.20;27.40
27506;DHT22;14939;43.596;1.320;2023-07-31T14:18:32;27.10;28.50
27506;DHT22;14939;43.596;1.320;2023-07-31T14:20:58;27.10;28.10
27506;DHT22;14939;43.596;1.320;2023-07-31T14:23:23;27.10;27.60
27506;DHT22;14939;43.596;1.320;2023-07-31T14:25:49;27.10;27.40
27506;DHT22;14939;43.596;1.320;2023-07-31T14:28:14;27.00;27.60
27506;DHT22;14939;43.596;1.320;2023-07-31T14:30:40;27.00;28.10
27506;DHT22;14939;43.596;1.320;2023-07-31T14:33:06;27.10;27.00
27506;DHT22;14939;43.596;1.320;2023-07-31T14:35:31;27.20;27.10
27506;DHT22;14939;43.596;1.320;2023-07-31T14:37:57;27.30;27.20
27506;DHT22;14939;43.596;1.320;2023-07-31T14:40:22;27.50;26.40
27506;DHT22;14939;43.596;1.320;2023-07-31T14:42:48;27.60;27.20
27506;DHT22;14939;43.596;1.320;2023-07-31T14:45:13;27.40;26.30
27506;DHT22;14939;43.596;1.320;2023-07-31T14:47:39;27.60;26.30
27506;DHT22;14939;43.596;1.320;2023-07-31T14:50:05;27.70;26.40
27506;DHT22;14939;43.596;1.320;2023-07-31T14:52:30;27.90;26.10
27506;DHT22;14939;43.596;1.320;2023-07-31T14:54:56;28.00;25.80
27506;DHT22;14939;43.596;1.320;2023-07-31T14:57:21;28.20;25.70
27506;DHT22;14939;43.596;1.320;2023-07-31T14:59:47;28.20;24.10
27506;DHT22;14939;43.596;1.320;2023-07-31T15:02:13;28.30;24.20
27506;DHT22;14939;43.596;1.320;2023-07-31T15:04:38;30.90;21.10
27506;DHT22;14939;43.596;1.320;2023-07-31T15:07:04;32.70;18.90
27506;DHT22;14939;43.596;1.320;2023-07-31T15:09:30;34.50;16.90
27506;DHT22;14939;43.596;1.320;2023-07-31T15:11:55;36.20;13.20
27506;DHT22;14939;43.596;1.320;2023-07-31T15:14:21;35.90;11.90
27506;DHT22;14939;43.596;1.320;2023-07-31T15:16:47;35.10;12.10
27506;DHT22;14939;43.596;1.320;2023-07-31T15:19:13;34.90;12.10
27506;DHT22;14939;43.596;1.320;2023-07-31T15:21:39;35.70;11.40
27506;DHT22;14939;43.596;1.320;2023-07-31T15:24:04;35.80;10.50
27506;DHT22;14939;43.596;1.320;2023-07-31T15:26:30;35.80;10.00
27506;DHT22;14939;43.596;1.320;2023-07-31T15:28:57;35.30;9.70
27506;DHT22;14939;43.596;1.320;2023-07-31T15:31:25;35.80;8.70
27506;DHT22;14939;43.596;1.320;2023-07-31T15:33:51;35.80;8.60
27506;DHT22;14939;43.596;1.320;2023-07-31T15:36:16;34.90;9.10